Time;durP1;ratioP1;P1;durP2;ratioP2;P2;SDS_P1;SDS_P2;PMS_P1;PMS_P2;Temp;Humidity;BMP_temperature;BMP_pressure;BME280_temperature;BME280_humidity;BME280_pressure;Samples;Min_cycle;Max_cycle;Signal;HPM_P1;HPM_P2
2021/06/05 00:02:16;;;;;;;;;9.00;8.75;;;;;-147.91;100.00;58652.34;5067758;27;45536;-91
2021/06/05 00:04:42;;;;;;;;;9.00;8.25;;;;;-147.91;100.00;58652.34;5069998;27;45792;-91
2021/06/05 00:07:07;;;;;;;;;9.00;8.00;;;;;-147.91;100.00;58652.34;5087470;27;47316;-91
2021/06/05 00:09:33;;;;;;;;;9.00;7.25;;;;;-147.91;100.00;58652.34;5073728;27;48861;-93
2021/06/05 00:11:58;;;;;;;;;9.00;8.00;;;;;-147.91;100.00;58652.34;5072082;27;45421;-93
2021/06/05 00:14:24;;;;;;;;;6.75;6.50;;;;;-147.91;100.00;58652.34;5066199;27;46533;-92
2021/06/05 00:16:53;;;;;;;;;12.00;9.75;;;;;-147.91;100.00;58652.34;5071065;28;45073;-92
2021/06/05 00:19:19;;;;;;;;;10.25;6.50;;;;;-147.91;100.00;58652.34;5071453;27;45777;-91
2021/06/05 00:21:47;;;;;;;;;5.25;5.00;;;;;-147.91;100.00;58652.34;5067813;27;46449;-92
2021/06/05 00:24:12;;;;;;;;;7.25;6.00;;;;;-147.91;100.00;58652.34;5071331;27;46079;-92
2021/06/05 00:26:38;;;;;;;;;7.00;7.00;;;;;-147.91;100.00;58652.34;5070910;27;46578;-92
2021/06/05 00:29:04;;;;;;;;;11.50;7.00;;;;;-147.91;100.00;58652.34;5071663;27;45574;-92
2021/06/05 00:31:31;;;;;;;;;8.50;7.00;;;;;-147.91;100.00;58652.34;5069767;27;45751;-91
2021/06/05 00:33:56;;;;;;;;;7.25;7.25;;;;;-147.91;100.00;58652.34;5062906;27;45463;-92
2021/06/05 00:36:23;;;;;;;;;7.00;6.75;;;;;-147.91;100.00;58652.34;5067325;27;45853;-93
2021/06/05 00:38:49;;;;;;;;;5.00;5.00;;;;;-147.91;100.00;58652.34;5074906;28;45521;-91
2021/06/05 00:41:17;;;;;;;;;8.75;6.50;;;;;-147.91;100.00;58652.34;5061587;27;45293;-92
2021/06/05 00:43:49;;;;;;;;;7.50;6.00;;;;;-147.91;100.00;58652.34;5065566;27;47568;-92
2021/06/05 00:46:17;;;;;;;;;5.75;5.75;;;;;-147.91;100.00;58652.34;5072633;27;45562;-93
2021/06/05 00:48:43;;;;;;;;;7.00;7.00;;;;;-147.91;100.00;58652.34;5071587;27;45093;-91
2021/06/05 00:51:09;;;;;;;;;6.25;6.00;;;;;-147.91;100.00;58652.34;5071421;28;45435;-92
2021/06/05 00:53:35;;;;;;;;;6.00;6.00;;;;;-147.91;100.00;58652.34;5068352;28;46046;-91
2021/06/05 00:56:02;;;;;;;;;6.50;6.50;;;;;-147.91;100.00;58652.34;5069433;27;45561;-92
2021/06/05 00:58:29;;;;;;;;;4.75;4.75;;;;;-147.91;100.00;58652.34;5068922;28;45593;-91
2021/06/05 01:01:05;;;;;;;;;9.25;7.00;;;;;-147.91;100.00;58652.34;5053171;28;45630;-91
2021/06/05 01:03:31;;;;;;;;;6.50;5.75;;;;;-147.91;100.00;58652.34;5073301;27;47016;-92
2021/06/05 01:06:01;;;;;;;;;7.25;6.00;;;;;-147.91;100.00;58652.34;5070396;27;45609;-91
2021/06/05 01:08:44;;;;;;;;;8.00;6.75;;;;;-147.91;100.00;58652.34;5074356;27;45442;-93
2021/06/05 01:11:38;;;;;;;;;7.00;5.25;;;;;-147.91;100.00;58652.34;5082675;27;45557;-93
2021/06/05 01:14:09;;;;;;;;;7.75;6.00;;;;;-147.91;100.00;58652.34;5064445;27;45761;-93
2021/06/05 01:16:37;;;;;;;;;6.50;6.50;;;;;-147.91;100.00;58652.34;5074885;27;45587;-91
2021/06/05 01:19:25;;;;;;;;;6.50;5.00;;;;;-147.91;100.00;58652.34;5064557;27;45334;-93
2021/06/05 01:22:17;;;;;;;;;9.75;6.75;;;;;-147.91;100.00;58652.34;5073048;27;45563;-93
2021/06/05 01:25:00;;;;;;;;;8.00;6.25;;;;;-147.91;100.00;58652.34;5067421;27;45907;-92
2021/06/05 01:27:31;;;;;;;;;10.00;8.50;;;;;-147.91;100.00;58652.34;5074154;27;45672;-93
2021/06/05 01:30:01;;;;;;;;;13.00;9.50;;;;;-147.91;100.00;58652.34;5072436;28;45918;-91
2021/06/05 01:32:29;;;;;;;;;9.25;8.75;;;;;-147.91;100.00;58652.34;5075665;27;45356;-91
2021/06/05 01:34:57;;;;;;;;;7.50;7.00;;;;;-147.91;100.00;58652.34;5078137;27;45284;-92
2021/06/05 01:37:24;;;;;;;;;9.00;9.00;;;;;-147.91;100.00;58652.34;5078019;27;45008;-91
2021/06/05 01:39:52;;;;;;;;;9.75;8.25;;;;;-147.91;100.00;58652.34;5085582;27;45363;-91
2021/06/05 01:42:22;;;;;;;;;10.00;8.00;;;;;-147.91;100.00;58652.34;5085221;28;45270;-91
2021/06/05 01:44:51;;;;;;;;;10.50;7.50;;;;;-147.91;100.00;58652.34;5073903;27;45304;-92
2021/06/05 01:47:17;;;;;;;;;9.00;9.00;;;;;-147.91;100.00;58652.34;5073296;27;44988;-92
2021/06/05 01:49:45;;;;;;;;;9.50;9.00;;;;;-147.91;100.00;58652.34;5075228;27;45598;-91
2021/06/05 01:52:21;;;;;;;;;12.75;9.75;;;;;-147.91;100.00;58652.34;5068394;27;45447;-92
2021/06/05 01:54:54;;;;;;;;;9.00;8.50;;;;;-147.91;100.00;58652.34;5068957;28;46530;-92
2021/06/05 01:57:24;;;;;;;;;11.50;8.75;;;;;-147.91;100.00;58652.34;5074098;27;45517;-92
2021/06/05 01:59:50;;;;;;;;;11.50;9.00;;;;;-147.91;100.00;58652.34;5065058;28;46601;-93
2021/06/05 02:02:16;;;;;;;;;12.25;9.00;;;;;-147.91;100.00;58652.34;5073520;27;45798;-92
2021/06/05 02:04:42;;;;;;;;;11.75;8.75;;;;;-147.91;100.00;58652.34;5076952;27;45560;-90
2021/06/05 02:07:08;;;;;;;;;12.50;10.75;;;;;-147.91;100.00;58652.34;5072352;27;45602;-92
2021/06/05 02:09:34;;;;;;;;;13.00;10.00;;;;;-147.91;100.00;58652.34;5069327;27;46725;-91
2021/06/05 02:12:35;;;;;;;;;10.00;9.75;;;;;-147.91;100.00;58652.34;5073573;27;45330;-92
2021/06/05 02:15:03;;;;;;;;;9.00;7.00;;;;;-147.91;100.00;58652.34;5065120;27;46523;-92
2021/06/05 02:17:32;;;;;;;;;9.00;7.50;;;;;-147.91;100.00;58652.34;5066535;27;45601;-91
2021/06/05 02:20:05;;;;;;;;;13.25;7.75;;;;;-147.91;100.00;58652.34;5075971;27;45564;-90
2021/06/05 02:22:31;;;;;;;;;10.00;10.00;;;;;-147.91;100.00;58652.34;5073614;27;45582;-91
2021/06/05 02:25:00;;;;;;;;;8.00;8.00;;;;;-147.91;100.00;58652.34;5074003;27;46271;-91
2021/06/05 02:27:29;;;;;;;;;11.50;10.00;;;;;-147.91;100.00;58652.34;5069848;27;45699;-89
2021/06/05 02:29:56;;;;;;;;;10.50;9.50;;;;;-147.91;100.00;58652.34;5074225;27;46012;-92
2021/06/05 02:32:28;;;;;;;;;8.75;8.00;;;;;-147.91;100.00;58652.34;5072713;27;45384;-90
2021/06/05 02:34:56;;;;;;;;;9.50;7.25;;;;;-147.91;100.00;58652.34;5073127;27;47659;-92
2021/06/05 02:37:26;;;;;;;;;14.00;9.50;;;;;-147.91;100.00;58652.34;5073991;28;45555;-92
2021/06/05 02:40:00;;;;;;;;;8.00;8.00;;;;;-147.91;100.00;58652.34;5071264;27;45536;-91
2021/06/05 02:42:26;;;;;;;;;7.75;7.75;;;;;-147.91;100.00;58652.34;5073638;27;45547;-93
2021/06/05 02:44:55;;;;;;;;;14.00;9.75;;;;;-147.91;100.00;58652.34;5072249;27;46702;-91
2021/06/05 02:47:22;;;;;;;;;9.50;9.50;;;;;-147.91;100.00;58652.34;5071076;27;45453;-91
2021/06/05 02:49:48;;;;;;;;;13.00;12.00;;;;;-147.91;100.00;58652.34;5077986;27;45531;-90
2021/06/05 02:52:33;;;;;;;;;12.50;12.00;;;;;-147.91;100.00;58652.34;5074005;27;45536;-94
2021/06/05 02:55:08;;;;;;;;;11.50;10.75;;;;;-147.91;100.00;58652.34;5066589;27;45639;-92
2021/06/05 02:57:34;;;;;;;;;11.00;10.25;;;;;-147.91;100.00;58652.34;5072422;28;46074;-90
2021/06/05 02:59:59;;;;;;;;;15.00;11.50;;;;;-147.91;100.00;58652.34;5070288;27;45469;-89
2021/06/05 03:02:25;;;;;;;;;10.75;9.25;;;;;-147.91;100.00;58652.34;5083187;27;45869;-90
2021/06/05 03:04:51;;;;;;;;;14.25;12.25;;;;;-147.91;100.00;58652.34;5070359;28;48161;-90
2021/06/05 03:07:17;;;;;;;;;16.25;12.75;;;;;-147.91;100.00;58652.34;5069450;27;45513;-92
2021/06/05 03:09:43;;;;;;;;;15.25;11.00;;;;;-147.91;100.00;58652.34;5069219;27;46252;-90
2021/06/05 03:12:12;;;;;;;;;14.00;11.00;;;;;-147.91;100.00;58652.34;5071827;27;45523;-90
2021/06/05 03:14:39;;;;;;;;;14.75;10.50;;;;;-147.91;100.00;58652.34;5074501;27;47140;-91
2021/06/05 03:17:07;;;;;;;;;17.25;11.00;;;;;-147.91;100.00;58652.34;5071407;27;46128;-92
2021/06/05 03:19:33;;;;;;;;;12.50;12.00;;;;;-147.91;100.00;58652.34;5076281;27;45573;-90
2021/06/05 03:21:59;;;;;;;;;15.25;13.50;;;;;-147.91;100.00;58652.34;5069482;27;45849;-93
2021/06/05 03:24:24;;;;;;;;;15.75;11.25;;;;;-147.91;100.00;58652.34;5071503;28;47168;-93
2021/06/05 03:26:50;;;;;;;;;19.50;15.50;;;;;-147.91;100.00;58652.34;5075344;27;45365;-91
2021/06/05 03:29:15;;;;;;;;;15.00;14.75;;;;;-147.91;100.00;58652.34;5070790;27;45494;-91
2021/06/05 03:31:41;;;;;;;;;15.75;12.50;;;;;-147.91;100.00;58652.34;5074313;27;45652;-91
2021/06/05 03:34:06;;;;;;;;;20.75;16.50;;;;;-147.91;100.00;58652.34;5071999;27;45356;-93
2021/06/05 03:36:32;;;;;;;;;17.75;14.75;;;;;-147.91;100.00;58652.34;5070341;27;45787;-92
2021/06/05 03:38:58;;;;;;;;;16.00;14.25;;;;;-147.91;100.00;58652.34;5066878;28;45357;-92
2021/06/05 03:41:23;;;;;;;;;22.00;16.00;;;;;-147.91;100.00;58652.34;5067335;27;45523;-90
2021/06/05 03:43:49;;;;;;;;;21.25;15.75;;;;;-147.91;100.00;58652.34;5069566;27;47185;-92
2021/06/05 03:46:14;;;;;;;;;17.75;16.25;;;;;-147.91;100.00;58652.34;5070532;27;46007;-92
2021/06/05 03:48:40;;;;;;;;;19.50;15.25;;;;;-147.91;100.00;58652.34;5070892;27;45856;-91
2021/06/05 03:51:07;;;;;;;;;21.75;15.75;;;;;-147.91;100.00;58652.34;5070282;27;45550;-92
2021/06/05 03:53:33;;;;;;;;;19.75;15.25;;;;;-147.91;100.00;58652.34;5064935;27;47224;-92
2021/06/05 03:55:58;;;;;;;;;20.50;16.00;;;;;-147.91;100.00;58652.34;5068527;27;46680;-91
2021/06/05 03:58:29;;;;;;;;;20.75;14.75;;;;;-147.91;100.00;58652.34;5065595;28;45613;-92
2021/06/05 04:00:56;;;;;;;;;20.00;16.25;;;;;-147.91;100.00;58652.34;5069013;27;45577;-90
2021/06/05 04:03:22;;;;;;;;;20.00;18.50;;;;;-147.91;100.00;58652.34;5075628;27;45806;-91
2021/06/05 04:05:49;;;;;;;;;17.75;15.25;;;;;-147.91;100.00;58652.34;5067717;27;45456;-92
2021/06/05 04:08:15;;;;;;;;;19.75;13.50;;;;;-147.91;100.00;58652.34;5075277;27;45576;-91
2021/06/05 04:10:40;;;;;;;;;19.25;16.25;;;;;-147.91;100.00;58652.34;5067890;27;45587;-90
2021/06/05 04:13:07;;;;;;;;;19.75;16.50;;;;;-147.91;100.00;58652.34;5058665;27;46978;-92
2021/06/05 04:15:33;;;;;;;;;18.00;13.75;;;;;-147.91;100.00;58652.34;5073796;27;45444;-91
2021/06/05 04:18:06;;;;;;;;;16.50;11.00;;;;;-147.91;100.00;58652.34;5062406;27;45470;-91
2021/06/05 04:20:33;;;;;;;;;20.50;16.25;;;;;-147.91;100.00;58652.34;5061900;27;45640;-90
2021/06/05 04:22:59;;;;;;;;;17.00;16.50;;;;;-147.91;100.00;58652.34;5067311;27;47179;-91
2021/06/05 04:25:25;;;;;;;;;14.75;12.25;;;;;-147.91;100.00;58652.34;5069432;27;45934;-90
2021/06/05 04:27:51;;;;;;;;;15.50;10.50;;;;;-147.91;100.00;58652.34;5069903;27;45524;-91
2021/06/05 04:30:17;;;;;;;;;15.50;10.00;;;;;-147.91;100.00;58652.34;5067030;28;45871;-91
2021/06/05 04:32:44;;;;;;;;;15.00;13.00;;;;;-147.91;100.00;58652.34;5076959;27;47192;-91
2021/06/05 04:35:11;;;;;;;;;10.50;10.00;;;;;-147.91;100.00;58652.34;5062849;27;45610;-88
2021/06/05 04:37:37;;;;;;;;;15.50;10.75;;;;;-147.91;100.00;58652.34;5069364;27;45505;-90
2021/06/05 04:40:04;;;;;;;;;16.00;12.25;;;;;-147.91;100.00;58652.34;5065625;27;45558;-90
2021/06/05 04:42:30;;;;;;;;;19.50;13.25;;;;;-147.91;100.00;58652.34;5068191;27;47083;-91
2021/06/05 04:44:55;;;;;;;;;14.75;11.75;;;;;-147.91;100.00;58652.34;5068845;28;45808;-90
2021/06/05 04:47:20;;;;;;;;;12.00;11.50;;;;;-147.91;100.00;58652.34;5062175;27;45525;-91
2021/06/05 04:49:46;;;;;;;;;9.00;9.00;;;;;-147.91;100.00;58652.34;5065427;27;45793;-91
2021/06/05 04:52:11;;;;;;;;;13.75;10.00;;;;;-147.91;100.00;58652.34;5063678;27;46304;-90
2021/06/05 04:54:40;;;;;;;;;9.75;9.50;;;;;-147.91;100.00;58652.34;5067434;27;45714;-91
2021/06/05 04:57:07;;;;;;;;;15.00;10.50;;;;;-147.91;100.00;58652.34;5064346;28;45710;-92
2021/06/05 04:59:32;;;;;;;;;12.00;8.75;;;;;-147.91;100.00;58652.34;5067236;27;45553;-91
2021/06/05 05:01:57;;;;;;;;;12.75;10.50;;;;;-147.91;100.00;58652.34;5064507;27;48106;-90
2021/06/05 05:04:23;;;;;;;;;14.50;8.75;;;;;-147.91;100.00;58652.34;5079072;27;45838;-92
2021/06/05 05:06:48;;;;;;;;;10.50;10.00;;;;;-147.91;100.00;58652.34;5063927;27;45545;-92
2021/06/05 05:09:17;;;;;;;;;9.00;7.50;;;;;-147.91;100.00;58652.34;5067213;27;45582;-92
2021/06/05 05:11:43;;;;;;;;;13.75;7.75;;;;;-147.91;100.00;58652.34;5065795;27;47360;-92
2021/06/05 05:14:11;;;;;;;;;8.50;7.75;;;;;-147.91;100.00;58652.34;5065246;27;48142;-93
2021/06/05 05:16:37;;;;;;;;;11.75;8.50;;;;;-147.91;100.00;58652.34;5063151;27;45508;-92
2021/06/05 05:19:03;;;;;;;;;11.00;10.50;;;;;-147.91;100.00;58652.34;5066468;27;45562;-92
2021/06/05 05:21:29;;;;;;;;;9.75;9.25;;;;;-147.91;100.00;58652.34;5067658;27;46948;-91
2021/06/05 05:23:55;;;;;;;;;11.25;9.50;;;;;-147.91;100.00;58652.34;5059223;27;45741;-90
2021/06/05 05:26:21;;;;;;;;;10.50;9.00;;;;;-147.91;100.00;58652.34;5063961;27;45552;-89
2021/06/05 05:28:49;;;;;;;;;11.75;9.00;;;;;-147.91;100.00;58652.34;5067881;27;48466;-91
2021/06/05 05:31:16;;;;;;;;;10.25;8.50;;;;;-147.91;100.00;58652.34;5063791;27;47122;-91
2021/06/05 05:33:42;;;;;;;;;9.50;8.00;;;;;-147.91;100.00;58652.34;5061381;27;45711;-90
2021/06/05 05:36:11;;;;;;;;;9.00;9.00;;;;;-147.91;100.00;58652.34;5062696;27;45599;-91
2021/06/05 05:38:37;;;;;;;;;10.75;9.00;;;;;-147.91;100.00;58652.34;5069358;27;45322;-90
2021/06/05 05:41:07;;;;;;;;;10.50;10.50;;;;;-147.91;100.00;58652.34;5071017;27;45570;-91
2021/06/05 05:43:33;;;;;;;;;14.50;10.00;;;;;-147.91;100.00;58652.34;5062467;28;45722;-89
2021/06/05 05:45:58;;;;;;;;;12.75;10.00;;;;;-147.91;100.00;58652.34;5064908;27;45509;-92
2021/06/05 05:48:25;;;;;;;;;14.00;11.50;;;;;-147.91;100.00;58652.34;5068505;27;45526;-91
2021/06/05 05:50:50;;;;;;;;;7.75;6.00;;;;;-147.91;100.00;58652.34;5070828;27;49470;-94
2021/06/05 05:53:16;;;;;;;;;11.75;9.00;;;;;-147.91;100.00;58652.34;5066394;27;45741;-90
2021/06/05 05:55:42;;;;;;;;;15.25;11.50;;;;;-147.91;100.00;58652.34;5067050;27;45561;-92
2021/06/05 05:58:12;;;;;;;;;12.75;9.75;;;;;-147.91;100.00;58652.34;5065387;27;45535;-92
2021/06/05 06:00:41;;;;;;;;;12.25;9.25;;;;;-147.91;100.00;58652.34;5062876;27;47578;-91
2021/06/05 06:03:07;;;;;;;;;9.25;9.25;;;;;-147.91;100.00;58652.34;5072984;27;45617;-90
2021/06/05 06:05:33;;;;;;;;;10.25;8.50;;;;;-147.91;100.00;58652.34;5069542;27;45635;-90
2021/06/05 06:07:59;;;;;;;;;11.50;9.00;;;;;-147.91;100.00;58652.34;5060928;27;45508;-90
2021/06/05 06:10:24;;;;;;;;;9.75;9.75;;;;;-147.91;100.00;58652.34;5066678;27;47286;-91
2021/06/05 06:12:51;;;;;;;;;16.00;9.75;;;;;-147.91;100.00;58652.34;5068021;27;45442;-91
2021/06/05 06:15:23;;;;;;;;;12.50;9.25;;;;;-147.91;100.00;58652.34;5065600;27;45473;-92
2021/06/05 06:17:50;;;;;;;;;16.00;11.25;;;;;-147.91;100.00;58652.34;5066902;27;45674;-91
2021/06/05 06:20:23;;;;;;;;;10.25;9.00;;;;;-147.91;100.00;58652.34;5064669;28;48400;-91
2021/06/05 06:22:49;;;;;;;;;13.75;8.00;;;;;-147.91;100.00;58652.34;5071091;27;45497;-90
2021/06/05 06:25:19;;;;;;;;;9.25;8.00;;;;;-147.91;100.00;58652.34;5077646;27;45640;-92
2021/06/05 06:27:46;;;;;;;;;13.50;8.25;;;;;-147.91;100.00;58652.34;5066121;27;45589;-93
2021/06/05 06:30:14;;;;;;;;;10.50;8.75;;;;;-147.91;100.00;58652.34;5061752;27;45524;-92
2021/06/05 06:32:39;;;;;;;;;13.25;10.25;;;;;-147.91;100.00;58652.34;5063687;27;45310;-91
2021/06/05 06:35:05;;;;;;;;;8.25;7.00;;;;;-147.91;100.00;58652.34;5069087;27;45604;-92
2021/06/05 06:37:30;;;;;;;;;10.00;8.00;;;;;-147.91;100.00;58652.34;5073440;27;45734;-91
2021/06/05 06:39:56;;;;;;;;;10.50;8.75;;;;;-147.91;100.00;58652.34;5075867;27;48035;-92
2021/06/05 06:42:21;;;;;;;;;11.00;8.00;;;;;-147.91;100.00;58652.34;5073019;27;45945;-91
2021/06/05 06:44:47;;;;;;;;;12.25;9.75;;;;;-147.91;100.00;58652.34;5075848;27;45474;-92
2021/06/05 06:47:12;;;;;;;;;11.75;11.00;;;;;-147.91;100.00;58652.34;5073805;27;44832;-90
2021/06/05 06:49:37;;;;;;;;;11.50;8.75;;;;;-147.91;100.00;58652.34;5079689;27;47151;-91
2021/06/05 06:52:03;;;;;;;;;8.25;8.00;;;;;-147.91;100.00;58652.34;5076259;27;45526;-89
2021/06/05 06:54:29;;;;;;;;;7.75;6.25;;;;;-147.91;100.00;58652.34;5070759;27;46088;-92
2021/06/05 06:56:54;;;;;;;;;17.00;8.00;;;;;-147.91;100.00;58652.34;5066116;27;45472;-93
2021/06/05 06:59:20;;;;;;;;;10.00;10.00;;;;;-147.91;100.00;58652.34;5049876;27;47265;-91
2021/06/05 07:01:46;;;;;;;;;13.00;9.00;;;;;-147.91;100.00;58652.34;5065945;27;45596;-92
2021/06/05 07:04:12;;;;;;;;;10.50;8.00;;;;;-147.91;100.00;58652.34;5070273;27;45535;-92
2021/06/05 07:06:37;;;;;;;;;10.50;8.75;;;;;-147.91;100.00;58652.34;5066491;27;45584;-90
2021/06/05 07:09:05;;;;;;;;;10.25;9.00;;;;;-147.91;100.00;58652.34;5066731;27;47252;-90
2021/06/05 07:11:33;;;;;;;;;10.00;10.00;;;;;-147.91;100.00;58652.34;5064379;27;46009;-90
2021/06/05 07:14:01;;;;;;;;;9.00;8.00;;;;;-147.91;100.00;58652.34;5069063;27;45797;-92
2021/06/05 07:16:28;;;;;;;;;10.75;8.00;;;;;-147.91;100.00;58652.34;5083434;27;45570;-90
2021/06/05 07:18:54;;;;;;;;;11.75;9.00;;;;;-147.91;100.00;58652.34;5069517;27;47830;-91
2021/06/05 07:21:20;;;;;;;;;8.00;8.00;;;;;-147.91;100.00;58652.34;5062545;27;45446;-92
2021/06/05 07:23:46;;;;;;;;;7.00;7.00;;;;;-147.91;100.00;58652.34;5066289;27;45578;-91
2021/06/05 07:26:16;;;;;;;;;10.00;8.00;;;;;-147.91;100.00;58652.34;5062549;27;45807;-90
2021/06/05 07:28:44;;;;;;;;;10.00;9.00;;;;;-147.91;100.00;58652.34;5064001;27;47250;-91
2021/06/05 07:31:13;;;;;;;;;10.50;6.25;;;;;-147.91;100.00;58652.34;5065999;27;45775;-91
2021/06/05 07:33:42;;;;;;;;;9.75;7.00;;;;;-147.91;100.00;58652.34;5061286;27;46692;-91
2021/06/05 07:36:12;;;;;;;;;10.50;9.00;;;;;-147.91;100.00;58652.34;5060911;28;44817;-91
2021/06/05 07:38:38;;;;;;;;;8.50;8.50;;;;;-147.91;100.00;58652.34;5065313;27;45385;-91
2021/06/05 07:41:03;;;;;;;;;9.25;8.00;;;;;-147.91;100.00;58652.34;5068801;27;45727;-91
2021/06/05 07:43:29;;;;;;;;;7.00;7.00;;;;;-147.91;100.00;58652.34;5073709;27;45545;-94
2021/06/05 07:45:56;;;;;;;;;7.50;6.25;;;;;-147.91;100.00;58652.34;5064323;27;45492;-90
2021/06/05 07:48:23;;;;;;;;;11.75;7.00;;;;;-147.91;100.00;58652.34;5072358;27;45519;-93
2021/06/05 07:50:49;;;;;;;;;8.50;7.50;;;;;-147.91;100.00;58652.34;5074325;27;45603;-90
2021/06/05 07:53:15;;;;;;;;;9.00;7.00;;;;;-147.91;100.00;58652.34;5076282;27;45628;-91
2021/06/05 07:55:42;;;;;;;;;7.75;7.75;;;;;-147.91;100.00;58652.34;5070457;27;44966;-92
2021/06/05 07:58:09;;;;;;;;;6.75;6.00;;;;;-147.91;100.00;58652.34;5065879;27;47672;-92
2021/06/05 08:00:36;;;;;;;;;8.00;6.00;;;;;-147.91;100.00;58652.34;5070171;27;45483;-90
2021/06/05 08:03:01;;;;;;;;;6.25;6.00;;;;;-147.91;100.00;58652.34;5083564;27;45533;-94
2021/06/05 08:05:28;;;;;;;;;7.75;7.75;;;;;-147.91;100.00;58652.34;5072340;27;45456;-91
2021/06/05 08:07:53;;;;;;;;;7.00;7.00;;;;;-147.91;100.00;58652.34;5073328;27;45413;-89
2021/06/05 08:10:21;;;;;;;;;6.00;6.00;;;;;-147.91;100.00;58652.34;5079069;27;45307;-92
2021/06/05 08:12:47;;;;;;;;;4.50;4.25;;;;;-147.91;100.00;58652.34;5063082;27;45339;-89
2021/06/05 08:15:18;;;;;;;;;8.25;7.50;;;;;-147.91;100.00;58652.34;5077330;27;45446;-92
2021/06/05 08:17:43;;;;;;;;;4.50;4.00;;;;;-147.91;100.00;58652.34;5067098;27;45527;-89
2021/06/05 08:20:14;;;;;;;;;6.25;5.50;;;;;-147.91;100.00;58652.34;5064905;27;46016;-92
2021/06/05 08:22:40;;;;;;;;;7.50;7.00;;;;;-147.91;100.00;58652.34;5059353;27;45342;-92
2021/06/05 08:25:07;;;;;;;;;8.00;8.00;;;;;-147.91;100.00;58652.34;5067982;28;45545;-90
2021/06/05 08:27:33;;;;;;;;;8.50;7.00;;;;;-147.91;100.00;58652.34;5066909;27;48287;-92
2021/06/05 08:29:58;;;;;;;;;9.75;7.25;;;;;-147.91;100.00;58652.34;5069497;27;45507;-90
2021/06/05 08:32:24;;;;;;;;;7.50;7.00;;;;;-147.91;100.00;58652.34;5070952;27;45814;-91
2021/06/05 08:34:50;;;;;;;;;11.75;7.50;;;;;-147.91;100.00;58652.34;5063468;27;46801;-92
2021/06/05 08:37:16;;;;;;;;;7.50;7.00;;;;;-147.91;100.00;58652.34;5070634;27;48307;-91
2021/06/05 08:39:41;;;;;;;;;9.75;7.75;;;;;-147.91;100.00;58652.34;5066531;27;50735;-91
2021/06/05 08:42:15;;;;;;;;;9.50;8.00;;;;;-147.91;100.00;58652.34;5072016;27;45433;-91
2021/06/05 08:44:41;;;;;;;;;11.50;9.00;;;;;-147.91;100.00;58652.34;5068471;27;45476;-90
2021/06/05 08:47:19;;;;;;;;;11.00;8.00;;;;;-147.91;100.00;58652.34;5065023;27;47589;-91
2021/06/05 08:49:46;;;;;;;;;10.25;8.00;;;;;-147.91;100.00;58652.34;5068619;27;45425;-91
2021/06/05 08:52:17;;;;;;;;;7.00;7.00;;;;;-147.91;100.00;58652.34;5067147;27;45553;-90
2021/06/05 08:54:56;;;;;;;;;8.00;7.00;;;;;-147.91;100.00;58652.34;5066629;27;45597;-90
2021/06/05 08:57:33;;;;;;;;;4.00;4.00;;;;;-147.91;100.00;58652.34;5071251;27;46811;-92
2021/06/05 09:00:23;;;;;;;;;9.00;7.50;;;;;-147.91;100.00;58652.34;5073380;27;45873;-90
2021/06/05 09:02:52;;;;;;;;;13.00;7.00;;;;;-147.91;100.00;58652.34;5069509;27;45629;-89
2021/06/05 09:05:22;;;;;;;;;7.00;7.00;;;;;-147.91;100.00;58652.34;5080788;27;45623;-90
2021/06/05 09:07:47;;;;;;;;;9.50;8.50;;;;;-147.91;100.00;58652.34;5074609;27;45557;-90
2021/06/05 09:10:17;;;;;;;;;8.75;7.50;;;;;-147.91;100.00;58652.34;5064369;27;45679;-90
2021/06/05 09:12:43;;;;;;;;;7.00;7.00;;;;;-147.91;100.00;58652.34;5073287;27;45354;-92
2021/06/05 09:15:37;;;;;;;;;8.50;8.00;;;;;-147.91;100.00;58652.34;5074723;27;45491;-88
2021/06/05 09:18:09;;;;;;;;;8.00;6.25;;;;;-147.91;100.00;58652.34;5069221;28;46595;-90
2021/06/05 09:21:03;;;;;;;;;7.00;7.00;;;;;-147.91;100.00;58652.34;5072619;27;45487;-90
2021/06/05 09:23:35;;;;;;;;;8.75;8.00;;;;;-147.91;100.00;58652.34;5067254;27;45574;-90
2021/06/05 09:26:27;;;;;;;;;10.00;8.50;;;;;-147.91;100.00;58652.34;5080858;27;45393;-90
2021/06/05 09:29:09;;;;;;;;;7.75;7.50;;;;;-147.91;100.00;58652.34;5066875;27;46413;-89
2021/06/05 09:31:50;;;;;;;;;9.25;7.75;;;;;-147.91;100.00;58652.34;5072482;27;45523;-90
2021/06/05 09:34:16;;;;;;;;;10.00;8.50;;;;;-147.91;100.00;58652.34;5068131;27;45524;-90
2021/06/05 09:36:42;;;;;;;;;6.75;6.75;;;;;-147.91;100.00;58652.34;5061514;27;45567;-89
2021/06/05 09:39:12;;;;;;;;;6.00;4.75;;;;;-147.91;100.00;58652.34;5069306;27;47459;-89
2021/06/05 09:41:44;;;;;;;;;8.00;6.50;;;;;-147.91;100.00;58652.34;5072058;27;45654;-91
2021/06/05 09:44:21;;;;;;;;;8.25;6.00;;;;;-147.91;100.00;58652.34;5062572;27;45631;-95
2021/06/05 09:47:03;;;;;;;;;9.75;7.00;;;;;-147.91;100.00;58652.34;5062117;28;46490;-91
2021/06/05 09:49:45;;;;;;;;;11.00;7.00;;;;;-147.91;100.00;58652.34;5066898;28;47664;-91
2021/06/05 09:52:26;;;;;;;;;8.00;6.75;;;;;-147.91;100.00;58652.34;5058308;27;45798;-90
2021/06/05 09:54:56;;;;;;;;;6.00;6.00;;;;;-147.91;100.00;58652.34;5066008;27;45465;-88
2021/06/05 09:57:30;;;;;;;;;7.50;6.25;;;;;-147.91;100.00;58652.34;5064396;27;45480;-89
2021/06/05 10:00:14;;;;;;;;;8.00;6.25;;;;;-147.91;100.00;58652.34;5072973;27;47115;-89
2021/06/05 10:02:46;;;;;;;;;8.25;7.25;;;;;-147.91;100.00;58652.34;5061196;27;45383;-90
2021/06/05 10:05:18;;;;;;;;;7.75;6.50;;;;;-147.91;100.00;58652.34;5061112;27;44969;-91
2021/06/05 10:07:43;;;;;;;;;6.50;6.50;;;;;-147.91;100.00;58652.34;5066042;27;45726;-88
2021/06/05 10:10:33;;;;;;;;;6.75;6.50;;;;;-147.91;100.00;58652.34;5068277;27;45539;-90
2021/06/05 10:13:03;;;;;;;;;7.25;5.75;;;;;-147.91;100.00;58652.34;5066411;27;45430;-91
2021/06/05 10:15:36;;;;;;;;;6.50;5.50;;;;;-147.91;100.00;58652.34;5064700;27;45508;-90
2021/06/05 10:18:13;;;;;;;;;6.75;6.25;;;;;-147.91;100.00;58652.34;5077924;27;45461;-90
2021/06/05 10:20:41;;;;;;;;;6.25;6.25;;;;;-147.91;100.00;58652.34;5065174;27;47530;-93
2021/06/05 10:23:08;;;;;;;;;7.75;6.75;;;;;-147.91;100.00;58652.34;5060450;27;45703;-91
2021/06/05 10:25:39;;;;;;;;;8.50;7.25;;;;;-147.91;100.00;58652.34;5068339;27;45492;-91
2021/06/05 10:28:27;;;;;;;;;10.00;7.00;;;;;-147.91;100.00;58652.34;5065317;27;45466;-91
2021/06/05 10:31:04;;;;;;;;;8.25;7.50;;;;;-147.91;100.00;58652.34;5068889;27;48095;-90
2021/06/05 10:33:42;;;;;;;;;12.25;8.25;;;;;-147.91;100.00;58652.34;5069053;27;45580;-92
2021/06/05 10:36:14;;;;;;;;;5.00;5.00;;;;;-147.91;100.00;58652.34;5068313;27;45662;-89
2021/06/05 10:38:48;;;;;;;;;5.75;5.75;;;;;-147.91;100.00;58652.34;5062603;27;45582;-90
2021/06/05 10:41:30;;;;;;;;;7.00;5.75;;;;;-147.91;100.00;58652.34;5069172;27;47623;-91
2021/06/05 10:43:56;;;;;;;;;9.75;6.50;;;;;-147.91;100.00;58652.34;5069274;28;45517;-91
2021/06/05 10:46:43;;;;;;;;;6.00;6.00;;;;;-147.91;100.00;58652.34;5071433;28;45639;-91
2021/06/05 10:49:15;;;;;;;;;9.00;9.00;;;;;-147.91;100.00;58652.34;5070125;27;45488;-91
2021/06/05 10:51:44;;;;;;;;;8.00;7.25;;;;;-147.91;100.00;58652.34;5061819;27;46172;-93
2021/06/05 10:54:23;;;;;;;;;7.00;6.00;;;;;-147.91;100.00;58652.34;5072496;27;45992;-91
2021/06/05 10:57:04;;;;;;;;;7.00;7.00;;;;;-147.91;100.00;58652.34;5074200;27;45562;-90
2021/06/05 10:59:41;;;;;;;;;9.75;6.75;;;;;-147.91;100.00;58652.34;5070992;27;45838;-91
2021/06/05 11:02:07;;;;;;;;;6.75;6.75;;;;;-147.91;100.00;58652.34;5071921;27;46691;-90
2021/06/05 11:04:33;;;;;;;;;6.00;6.00;;;;;-147.91;100.00;58652.34;5073865;27;45653;-90
2021/06/05 11:07:01;;;;;;;;;25.00;23.75;;;;;-147.91;100.00;58652.34;5063724;27;45480;-91
2021/06/05 11:09:30;;;;;;;;;15.25;15.25;;;;;-147.91;100.00;58652.34;5074689;27;45620;-91
2021/06/05 11:12:15;;;;;;;;;5.00;5.00;;;;;-147.91;100.00;58652.34;5071562;27;45543;-89
2021/06/05 11:14:48;;;;;;;;;5.75;5.25;;;;;-147.91;100.00;58652.34;5062788;27;45691;-93